Time;durP1;ratioP1;P1;durP2;ratioP2;P2;SDS_P1;SDS_P2;PMS_P1;PMS_P2;Temp;Humidity;BMP_temperature;BMP_pressure;BME280_temperature;BME280_humidity;BME280_pressure;Samples;Min_cycle;Max_cycle;Signal;HPM_P1;HPM_P2
2023/05/06 00:02:08;;;;;;;17.67;13.13;;;;;;;11.23;100.00;101371.66;5066573;28;20298;-78
2023/05/06 00:04:35;;;;;;;17.73;13.02;;;;;;;11.18;100.00;101374.94;5066680;28;20036;-78
2023/05/06 00:07:01;;;;;;;20.80;14.07;;;;;;;11.08;100.00;101357.66;5085298;28;20020;-78
2023/05/06 00:09:26;;;;;;;19.48;14.30;;;;;;;11.04;100.00;101365.28;5083941;28;20398;-78
2023/05/06 00:11:52;;;;;;;22.23;15.20;;;;;;;10.98;100.00;101365.25;5086101;28;20036;-78
2023/05/06 00:14:17;;;;;;;20.25;14.38;;;;;;;10.84;100.00;101365.22;5067847;28;20048;-77
2023/05/06 00:16:42;;;;;;;23.38;15.57;;;;;;;10.75;100.00;101358.44;5067536;28;20044;-78
2023/05/06 00:19:08;;;;;;;23.93;15.47;;;;;;;10.72;100.00;101360.69;5084070;28;20032;-78
2023/05/06 00:21:33;;;;;;;20.45;15.23;;;;;;;10.68;100.00;101354.06;5066649;28;20346;-78
2023/05/06 00:27:20;;;;;;;19.88;14.38;;;;;;;10.65;100.00;101357.16;5084006;28;20143;-78
2023/05/06 00:29:45;;;;;;;21.50;13.90;;;;;;;10.64;100.00;101361.66;5085220;28;20481;-78
2023/05/06 00:32:10;;;;;;;21.80;14.10;;;;;;;10.64;100.00;101353.66;5084259;28;20291;-78
2023/05/06 00:34:36;;;;;;;22.08;15.15;;;;;;;10.65;100.00;101351.78;5067353;28;20293;-78
2023/05/06 00:40:23;;;;;;;12.55;10.45;;;;;;;10.46;100.00;101353.41;5082060;28;20719;-77
2023/05/06 00:42:48;;;;;;;17.25;12.85;;;;;;;10.41;100.00;101356.69;5084223;28;20029;-78
2023/05/06 00:45:13;;;;;;;18.45;13.63;;;;;;;10.38;100.00;101358.91;5083517;28;20086;-78
2023/05/06 00:47:40;;;;;;;17.80;13.35;;;;;;;10.29;100.00;101346.75;5067855;28;20059;-78
2023/05/06 00:50:06;;;;;;;18.23;14.80;;;;;;;10.24;100.00;101352.69;5084224;28;20048;-78
2023/05/06 00:52:31;;;;;;;21.15;15.43;;;;;;;10.24;100.00;101361.53;5085608;28;20025;-79
2023/05/06 00:54:57;;;;;;;23.55;17.08;;;;;;;10.26;100.00;101352.50;5067371;28;20032;-78
2023/05/06 00:57:23;;;;;;;18.85;13.52;;;;;;;10.15;100.00;101345.84;5067131;28;20043;-79
2023/05/06 00:59:48;;;;;;;18.23;12.23;;;;;;;10.06;100.00;101341.69;5066779;28;20024;-78
2023/05/06 01:02:14;;;;;;;41.40;14.93;;;;;;;10.04;100.00;101335.72;5084030;28;20048;-78
2023/05/06 01:04:40;;;;;;;21.80;14.80;;;;;;;10.01;100.00;101341.44;5066963;28;20060;-78
2023/05/06 01:07:34;;;;;;;15.45;12.45;;;;;;;10.01;100.00;101352.13;5083429;28;20033;-77
2023/05/06 01:10:31;;;;;;;18.70;13.10;;;;;;;9.95;100.00;101351.09;5085408;28;20042;-77
2023/05/06 01:13:17;;;;;;;16.20;11.40;;;;;;;9.92;100.00;101346.13;5067378;28;20584;-78
2023/05/06 01:19:07;;;;;;;24.38;14.50;;;;;;;9.81;100.00;101338.66;5086383;28;20044;-77
2023/05/06 01:21:33;;;;;;;17.13;12.50;;;;;;;9.78;100.00;101339.06;5066103;28;20040;-77
2023/05/06 01:23:59;;;;;;;18.15;11.95;;;;;;;9.70;100.00;101336.56;5064381;28;20092;-77
2023/05/06 01:26:24;;;;;;;20.27;14.02;;;;;;;9.72;100.00;101340.66;5081009;28;20123;-77
2023/05/06 01:28:50;;;;;;;12.98;9.43;;;;;;;9.67;100.00;101336.94;5082085;28;20064;-77
2023/05/06 01:34:45;;;;;;;16.42;10.30;;;;;;;9.59;100.00;101333.41;5090519;28;20042;-76
2023/05/06 01:37:22;;;;;;;66.75;13.18;;;;;;;9.58;100.00;101330.94;5072294;28;20032;-78
2023/05/06 01:43:12;;;;;;;32.78;12.25;;;;;;;9.57;100.00;101337.31;5089960;28;20151;-77
2023/05/06 01:45:39;;;;;;;25.38;12.43;;;;;;;9.52;100.00;101327.19;5089707;28;20067;-78
2023/05/06 01:48:05;;;;;;;22.02;14.13;;;;;;;9.46;100.00;101327.16;5090755;28;20031;-77
2023/05/06 01:50:31;;;;;;;18.20;12.55;;;;;;;9.44;100.00;101340.69;5089180;28;20051;-77
2023/05/06 01:53:01;;;;;;;18.08;13.00;;;;;;;9.40;100.00;101336.75;5088760;28;20036;-77
2023/05/06 01:58:48;;;;;;;21.65;13.85;;;;;;;9.24;100.00;101356.53;5089690;28;20039;-78
2023/05/06 02:01:13;;;;;;;13.23;10.35;;;;;;;9.08;100.00;101353.31;5070533;28;20024;-78
2023/05/06 02:03:39;;;;;;;13.75;10.95;;;;;;;8.97;100.00;101347.50;5069779;28;20044;-78
2023/05/06 02:06:04;;;;;;;15.45;13.00;;;;;;;8.97;100.00;101347.50;5071826;28;20021;-78
2023/05/06 02:11:51;;;;;;;16.48;12.80;;;;;;;9.10;100.00;101353.94;5088724;28;20111;-77
2023/05/06 02:14:17;;;;;;;16.67;12.67;;;;;;;9.13;100.00;101350.91;5087242;28;20040;-78
2023/05/06 02:16:42;;;;;;;16.25;12.57;;;;;;;9.14;100.00;101349.88;5070411;28;20317;-78
2023/05/06 02:19:07;;;;;;;15.83;12.33;;;;;;;9.14;100.00;101355.22;5088603;28;20033;-78
2023/05/06 02:21:33;;;;;;;16.73;11.07;;;;;;;9.11;100.00;101359.09;5088614;28;20322;-77
2023/05/06 02:23:58;;;;;;;15.73;12.00;;;;;;;9.11;100.00;101361.75;5089417;28;20024;-77
2023/05/06 02:26:23;;;;;;;15.00;11.20;;;;;;;9.08;100.00;101353.31;5087544;28;20029;-77
2023/05/06 02:28:48;;;;;;;15.90;11.70;;;;;;;9.05;100.00;101356.38;5088146;28;20028;-77
2023/05/06 02:31:14;;;;;;;21.43;12.27;;;;;;;9.08;100.00;101364.00;5086442;28;20032;-77
2023/05/06 02:33:40;;;;;;;11.55;9.40;;;;;;;9.02;100.00;101362.91;5068201;28;20321;-78
2023/05/06 02:39:28;;;;;;;14.13;10.32;;;;;;;8.95;100.00;101349.50;5084862;28;20043;-78
2023/05/06 02:41:53;;;;;;;18.17;13.67;;;;;;;8.89;100.00;101342.25;5082845;28;20037;-78
2023/05/06 02:47:40;;;;;;;15.15;11.82;;;;;;;8.73;100.00;101357.69;5080438;28;20444;-76
2023/05/06 02:50:05;;;;;;;15.75;12.00;;;;;;;8.65;100.00;101347.97;5061852;28;20029;-77
2023/05/06 02:52:32;;;;;;;18.00;12.70;;;;;;;8.64;100.00;101346.31;5062175;28;20044;-77
2023/05/06 02:58:19;;;;;;;15.68;11.73;;;;;;;8.68;100.00;101347.63;5080101;28;20039;-77
2023/05/06 03:00:44;;;;;;;18.38;13.45;;;;;;;8.65;100.00;101345.28;5060101;28;20457;-78
2023/05/06 03:03:09;;;;;;;17.70;12.45;;;;;;;8.71;100.00;101347.22;5080822;28;20047;-77
2023/05/06 03:05:35;;;;;;;16.45;11.38;;;;;;;8.68;100.00;101342.28;5081074;28;20020;-78
2023/05/06 03:11:21;;;;;;;18.75;13.05;;;;;;;8.63;100.00;101337.50;5080086;28;20096;-77
2023/05/06 03:13:47;;;;;;;15.88;12.77;;;;;;;8.65;100.00;101343.44;5079560;28;20032;-77
2023/05/06 03:16:15;;;;;;;17.13;12.85;;;;;;;8.67;100.00;101348.59;5060903;28;20048;-77
2023/05/06 03:18:40;;;;;;;14.43;11.52;;;;;;;8.59;100.00;101344.22;5079570;28;20481;-78
2023/05/06 03:21:06;;;;;;;14.82;12.15;;;;;;;8.51;100.00;101343.50;5077393;28;20159;-78
2023/05/06 03:23:31;;;;;;;15.60;12.45;;;;;;;8.50;100.00;101347.19;5079063;28;20048;-78
2023/05/06 03:25:57;;;;;;;15.50;11.95;;;;;;;8.53;100.00;101344.97;5060626;28;20029;-78
2023/05/06 03:28:22;;;;;;;17.60;13.50;;;;;;;8.51;100.00;101341.66;5076116;28;20477;-78
2023/05/06 03:30:48;;;;;;;19.38;13.82;;;;;;;8.55;100.00;101347.44;5059572;28;20469;-78
2023/05/06 03:33:13;;;;;;;17.83;13.52;;;;;;;8.58;100.00;101342.56;5076992;28;20036;-78
2023/05/06 03:39:00;;;;;;;19.40;13.07;;;;;;;8.67;100.00;101328.13;5078543;28;20059;-78
2023/05/06 03:41:25;;;;;;;21.65;13.00;;;;;;;8.66;100.00;101334.44;5058407;28;20373;-78
2023/05/06 03:43:51;;;;;;;18.90;13.30;;;;;;;8.66;100.00;101328.28;5076620;28;20103;-78
2023/05/06 03:49:38;;;;;;;18.45;12.75;;;;;;;8.56;100.00;101328.59;5076570;28;20429;-78
2023/05/06 03:52:04;;;;;;;18.80;13.05;;;;;;;8.55;100.00;101334.13;5074196;28;20044;-78
2023/05/06 03:54:29;;;;;;;16.15;11.88;;;;;;;8.57;100.00;101340.09;5056776;28;20471;-78
2023/05/06 03:56:55;;;;;;;21.05;13.85;;;;;;;8.50;100.00;101326.69;5075093;28;20447;-77
2023/05/06 03:59:20;;;;;;;18.03;12.03;;;;;;;8.52;100.00;101335.31;5074448;28;20092;-77
2023/05/06 04:01:45;;;;;;;17.23;11.32;;;;;;;8.50;100.00;101339.19;5075292;28;20290;-77
2023/05/06 04:04:10;;;;;;;15.63;11.32;;;;;;;8.40;100.00;101334.19;5056786;28;20041;-77
2023/05/06 04:06:36;;;;;;;13.90;10.70;;;;;;;8.39;100.00;101343.19;5075402;28;20025;-77
2023/05/06 04:09:01;;;;;;;15.38;11.88;;;;;;;8.42;100.00;101344.66;5075586;28;20028;-77
2023/05/06 04:11:27;;;;;;;17.80;11.52;;;;;;;8.38;100.00;101339.69;5055981;28;20036;-77
2023/05/06 04:17:14;;;;;;;14.48;10.20;;;;;;;8.37;100.00;101351.34;5074062;28;20082;-78
2023/05/06 04:19:39;;;;;;;15.73;11.57;;;;;;;8.46;100.00;101345.91;5055434;28;20040;-78
2023/05/06 04:22:04;;;;;;;18.00;10.90;;;;;;;8.57;100.00;101350.75;5054955;28;20043;-78
2023/05/06 04:27:52;;;;;;;14.02;10.70;;;;;;;8.92;100.00;101349.88;5073273;28;20163;-77
2023/05/06 04:30:19;;;;;;;17.45;12.63;;;;;;;9.13;100.00;101362.41;5073654;28;20032;-78
2023/05/06 04:32:44;;;;;;;17.85;11.95;;;;;;;9.34;100.00;101366.06;5074207;28;20038;-78
2023/05/06 04:35:09;;;;;;;15.23;12.00;;;;;;;9.51;100.00;101360.25;5073646;28;20131;-78
2023/05/06 04:40:56;;;;;;;15.27;10.48;;;;;;;9.93;100.00;101363.81;5075405;28;20324;-78
2023/05/06 04:43:21;;;;;;;14.93;10.63;;;;;;;10.09;100.00;101359.97;5057938;28;20036;-78
2023/05/06 04:45:50;;;;;;;14.98;10.85;;;;;;;10.19;100.00;101368.47;5056639;28;20044;-78
2023/05/06 04:48:21;;;;;;;17.83;11.00;;;;;;;10.29;100.00;101368.97;5057231;28;20103;-78
2023/05/06 04:50:47;;;;;;;13.68;11.70;;;;;;;10.34;100.00;101376.38;5075144;28;20024;-77
2023/05/06 04:53:13;;;;;;;14.57;11.73;;;;;;;10.48;100.00;101373.56;5075581;28;20036;-77
2023/05/06 04:55:38;;;;;;;14.55;11.57;;;;;;;10.65;100.00;101382.03;5058012;28;20028;-78
2023/05/06 04:58:03;;;;;;;13.87;11.40;;;;;;;10.72;100.00;101374.06;5074328;28;20045;-77
2023/05/06 05:00:29;;;;;;;19.15;11.85;;;;;;;10.86;100.00;101383.75;5058513;28;20317;-78
2023/05/06 05:02:54;;;;;;;16.50;11.70;;;;;;;10.94;100.00;101380.88;5076430;28;20051;-77
2023/05/06 05:05:20;;;;;;;14.95;10.73;;;;;;;11.04;100.00;101380.50;5057625;28;20063;-77
2023/05/06 05:07:45;;;;;;;15.00;11.48;;;;;;;11.14;100.00;101378.25;5076302;28;20032;-78
2023/05/06 05:10:10;;;;;;;16.95;11.30;;;;;;;11.21;100.00;101381.75;5059177;28;20131;-78
2023/05/06 05:12:36;;;;;;;13.13;10.50;;;;;;;11.26;100.00;101381.94;5077057;28;20013;-78
2023/05/06 05:15:02;;;;;;;16.92;12.13;;;;;;;11.31;100.00;101392.06;5079519;28;20048;-77
2023/05/06 05:17:27;;;;;;;16.40;11.65;;;;;;;11.25;100.00;101399.03;5059483;28;20119;-77
2023/05/06 05:19:52;;;;;;;14.98;11.27;;;;;;;11.24;100.00;101396.56;5077615;28;20033;-78
2023/05/06 05:22:18;;;;;;;15.48;11.25;;;;;;;11.31;100.00;101394.75;5078416;28;20049;-77
2023/05/06 05:24:43;;;;;;;16.50;10.88;;;;;;;11.38;100.00;101401.75;5080575;28;20025;-77
2023/05/06 05:27:09;;;;;;;15.27;11.07;;;;;;;11.34;100.00;101405.03;5078295;28;20440;-77
2023/05/06 05:29:35;;;;;;;14.65;11.20;;;;;;;11.23;100.00;101410.97;5076269;28;20041;-77
2023/05/06 05:32:00;;;;;;;12.98;10.55;;;;;;;11.09;100.00;101408.28;5080506;28;20051;-77
2023/05/06 05:34:25;;;;;;;14.80;11.63;;;;;;;10.95;100.00;101401.25;5059752;28;20072;-78
2023/05/06 05:36:51;;;;;;;14.85;10.38;;;;;;;10.83;100.00;101394.84;5060110;28;20036;-77
2023/05/06 05:39:17;;;;;;;15.77;11.05;;;;;;;10.92;100.00;101408.88;5079911;28;20025;-78
2023/05/06 05:41:42;;;;;;;17.00;11.82;;;;;;;10.93;100.00;101403.31;5061468;28;20067;-76
2023/05/06 05:44:07;;;;;;;17.55;12.48;;;;;;;11.14;100.00;101410.38;5064626;28;20024;-77
2023/05/06 05:46:33;;;;;;;15.80;12.02;;;;;;;11.38;100.00;101409.78;5065597;28;20102;-77
2023/05/06 05:48:58;;;;;;;16.77;10.83;;;;;;;11.72;100.00;101419.44;5063730;28;20028;-77
2023/05/06 05:51:23;;;;;;;15.20;10.65;;;;;;;11.86;100.00;101417.63;5061395;28;20303;-77
2023/05/06 05:53:50;;;;;;;15.80;10.80;;;;;;;12.00;100.00;101413.06;5063139;28;20032;-76
2023/05/06 05:56:16;;;;;;;14.40;10.45;;;;;;;12.24;100.00;101430.31;5083069;28;20769;-78
2023/05/06 05:58:41;;;;;;;15.20;10.07;;;;;;;12.38;100.00;101423.88;5084136;28;20055;-78
2023/05/06 06:01:06;;;;;;;15.97;10.17;;;;;;;12.78;100.00;101421.88;5067155;28;20031;-78
2023/05/06 06:03:31;;;;;;;13.37;9.77;;;;;;;13.23;100.00;101421.84;5086480;28;20295;-77
2023/05/06 06:05:57;;;;;;;14.73;9.93;;;;;;;13.61;100.00;101413.69;5069435;28;20321;-77
2023/05/06 06:08:22;;;;;;;14.27;9.10;;;;;;;14.09;100.00;101415.72;5067835;28;20075;-78
2023/05/06 06:10:48;;;;;;;11.63;8.95;;;;;;;14.33;100.00;101406.75;5084104;28;20047;-77
2023/05/06 06:13:13;;;;;;;11.65;8.43;;;;;;;15.06;100.00;101422.81;5082199;28;20056;-77
2023/05/06 06:15:39;;;;;;;12.40;8.45;;;;;;;15.89;100.00;101421.91;5087324;28;20029;-78
2023/05/06 06:18:07;;;;;;;10.70;7.75;;;;;;;16.31;100.00;101419.06;5083170;28;20048;-77
2023/05/06 06:20:33;;;;;;;11.82;7.93;;;;;;;16.71;100.00;101419.91;5065839;28;20028;-78
2023/05/06 06:22:58;;;;;;;11.30;7.80;;;;;;;17.12;100.00;101409.06;5070433;28;20105;-78
2023/05/06 06:25:23;;;;;;;12.32;7.40;;;;;;;17.77;100.00;101416.66;5070073;28;20035;-78
2023/05/06 06:27:49;;;;;;;9.75;7.82;;;;;;;18.11;100.00;101418.22;5087250;28;20068;-78
2023/05/06 06:30:14;;;;;;;10.98;7.65;;;;;;;18.44;100.00;101424.59;5083786;28;20032;-78
2023/05/06 06:32:47;;;;;;;10.52;7.18;;;;;;;18.84;100.00;101433.25;5066661;28;20028;-78
2023/05/06 06:35:12;;;;;;;10.02;7.45;;;;;;;18.88;99.89;101430.84;5082921;28;20041;-79
2023/05/06 06:37:38;;;;;;;9.93;6.80;;;;;;;19.11;100.00;101435.16;5083612;28;20039;-78
2023/05/06 06:43:25;;;;;;;10.57;7.05;;;;;;;20.80;96.72;101435.19;5081092;28;20651;-79
2023/05/06 06:45:51;;;;;;;10.13;7.18;;;;;;;21.71;89.90;101443.50;5062673;28;20020;-78
2023/05/06 06:48:16;;;;;;;9.65;6.75;;;;;;;21.56;85.95;101438.03;5080217;28;20135;-80
2023/05/06 06:50:41;;;;;;;10.60;7.22;;;;;;;21.13;86.63;101442.91;5081271;28;20032;-79
2023/05/06 06:53:08;;;;;;;11.38;6.75;;;;;;;21.06;89.34;101446.94;5063429;28;20040;-79
2023/05/06 06:55:33;;;;;;;9.57;7.00;;;;;;;21.24;85.50;101444.56;5079452;28;20024;-79
2023/05/06 06:57:58;;;;;;;11.20;6.43;;;;;;;20.97;84.63;101449.38;5062615;28;20033;-79
2023/05/06 07:00:24;;;;;;;12.60;7.20;;;;;;;20.59;85.94;101437.03;5059484;28;20504;-79
2023/05/06 07:02:49;;;;;;;9.68;7.03;;;;;;;21.19;89.15;101441.81;5079496;28;20294;-79
2023/05/06 07:05:15;;;;;;;10.63;6.90;;;;;;;21.56;84.04;101440.75;5079582;28;20040;-80
2023/05/06 07:11:05;;;;;;;11.48;7.70;;;;;;;21.40;80.94;101448.13;5079014;28;20090;-80
2023/05/06 07:13:30;;;;;;;13.18;7.32;;;;;;;21.43;86.16;101446.75;5079451;28;20408;-79
2023/05/06 07:15:57;;;;;;;12.13;7.50;;;;;;;21.04;84.25;101448.03;5079434;28;20028;-79
2023/05/06 07:21:44;;;;;;;14.15;9.38;;;;;;;20.22;87.83;101451.47;5079561;28;20515;-80
2023/05/06 07:24:10;;;;;;;17.58;10.60;;;;;;;20.87;88.40;101450.19;5077523;28;20048;-79
2023/05/06 07:26:36;;;;;;;16.77;11.27;;;;;;;21.20;84.79;101454.31;5059721;28;20020;-80
2023/05/06 07:29:03;;;;;;;15.40;9.35;;;;;;;21.74;84.85;101451.13;5077542;28;20090;-81
2023/05/06 07:31:31;;;;;;;15.15;10.18;;;;;;;22.21;79.43;101463.56;5060384;28;20562;-80
2023/05/06 07:33:57;;;;;;;12.93;8.40;;;;;;;23.23;78.77;101460.41;5077809;28;20020;-80
2023/05/06 07:36:23;;;;;;;15.50;9.82;;;;;;;24.22;73.89;101456.25;5075946;28;20045;-79
2023/05/06 07:42:12;;;;;;;23.38;14.63;;;;;;;24.52;67.88;101457.03;5076652;28;20055;-79
2023/05/06 07:44:37;;;;;;;21.90;13.82;;;;;;;24.95;71.56;101453.19;5079253;28;20028;-80
2023/05/06 07:47:03;;;;;;;24.30;15.05;;;;;;;25.58;65.97;101455.50;5061626;28;20031;-79
2023/05/06 07:49:30;;;;;;;20.58;12.00;;;;;;;26.08;64.83;101463.16;5076911;28;20036;-79
2023/05/06 07:51:56;;;;;;;20.33;12.50;;;;;;;26.88;60.02;101465.34;5078491;28;20111;-79
2023/05/06 07:54:21;;;;;;;22.52;13.75;;;;;;;27.28;57.60;101466.41;5076035;28;20063;-80
2023/05/06 07:56:46;;;;;;;24.27;13.70;;;;;;;27.39;57.36;101456.78;5075370;28;20024;-80
2023/05/06 08:02:33;;;;;;;21.20;12.77;;;;;;;27.83;56.72;101474.41;5077244;28;20048;-80
2023/05/06 08:04:59;;;;;;;18.52;11.43;;;;;;;27.18;54.39;101472.16;5060630;28;20024;-80
2023/05/06 08:07:24;;;;;;;18.95;13.23;;;;;;;26.83;56.54;101469.03;5060142;28;20036;-79
2023/05/06 08:09:49;;;;;;;22.63;12.77;;;;;;;26.15;56.41;101475.34;5060439;28;20024;-80
2023/05/06 08:12:16;;;;;;;19.27;12.90;;;;;;;26.70;58.91;101463.56;5075222;28;20275;-80
2023/05/06 08:14:41;;;;;;;20.08;12.80;;;;;;;27.79;55.12;101465.16;5075382;28;20086;-80
2023/05/06 08:17:07;;;;;;;19.80;13.18;;;;;;;28.60;52.54;101471.16;5074662;28;20020;-80
2023/05/06 08:19:32;;;;;;;19.33;12.90;;;;;;;29.19;48.86;101477.09;5055913;28;20037;-81
2023/05/06 08:21:57;;;;;;;19.80;12.23;;;;;;;29.77;46.47;101481.25;5056693;28;20029;-80
2023/05/06 08:24:23;;;;;;;14.80;10.03;;;;;;;30.15;43.62;101486.06;5073875;28;20095;-80
2023/05/06 08:26:48;;;;;;;15.82;10.40;;;;;;;30.74;43.24;101480.59;5055909;28;20358;-79
2023/05/06 08:29:13;;;;;;;17.07;11.10;;;;;;;31.13;42.89;101474.59;5072842;28;20029;-80
2023/05/06 08:35:01;;;;;;;15.18;10.00;;;;;;;31.54;40.35;101477.69;5073648;28;20305;-80
2023/05/06 08:37:26;;;;;;;15.00;10.30;;;;;;;30.66;40.63;101473.19;5056346;28;20389;-80
2023/05/06 08:39:51;;;;;;;14.10;9.85;;;;;;;30.71;40.64;101468.25;5072401;28;20488;-80
2023/05/06 08:42:17;;;;;;;14.13;9.25;;;;;;;31.50;40.05;101474.78;5072062;28;20524;-81
2023/05/06 08:44:43;;;;;;;13.77;8.57;;;;;;;31.38;40.13;101472.78;5056262;28;20074;-80
2023/05/06 08:47:09;;;;;;;14.27;9.60;;;;;;;30.83;40.29;101473.84;5074034;28;20028;-80
2023/05/06 08:49:34;;;;;;;17.02;9.10;;;;;;;30.56;43.10;101459.72;5072351;28;20040;-80
2023/05/06 08:52:04;;;;;;;11.38;8.60;;;;;;;31.30;41.63;101465.38;5054281;28;20038;-80
2023/05/06 08:54:34;;;;;;;11.80;8.18;;;;;;;32.43;40.45;101470.50;5053651;28;20040;-81
2023/05/06 08:57:03;;;;;;;13.80;8.80;;;;;;;33.32;38.23;101467.69;5055496;28;20060;-81
2023/05/06 08:59:31;;;;;;;12.38;8.93;;;;;;;33.16;36.56;101466.78;5054949;28;20024;-81
2023/05/06 09:01:56;;;;;;;14.25;8.60;;;;;;;32.41;37.47;101466.47;5072076;28;20060;-82
2023/05/06 09:04:22;;;;;;;11.77;7.87;;;;;;;32.39;36.95;101460.47;5055140;28;20033;-82
2023/05/06 09:06:47;;;;;;;9.93;7.47;;;;;;;33.47;35.69;101466.91;5053489;28;20279;-82
2023/05/06 09:09:13;;;;;;;11.40;6.70;;;;;;;34.26;35.70;101464.22;5072233;28;20465;-83
2023/05/06 09:11:40;;;;;;;7.55;5.60;;;;;;;33.76;33.75;101453.78;5054380;28;20033;-82
2023/05/06 09:14:16;;;;;;;10.60;6.35;;;;;;;33.14;35.27;101458.00;5053755;28;20599;-82
2023/05/06 09:16:43;;;;;;;10.00;6.40;;;;;;;32.50;33.79;101459.63;5072187;28;20024;-83
2023/05/06 09:19:09;;;;;;;11.45;6.68;;;;;;;31.47;35.40;101453.34;5071112;28;20420;-82
2023/05/06 09:21:41;;;;;;;8.63;5.72;;;;;;;31.15;37.37;101443.84;5071911;28;20075;-82
2023/05/06 09:24:08;;;;;;;10.57;6.47;;;;;;;30.35;37.62;101446.66;5071969;28;20526;-81
2023/05/06 09:26:35;;;;;;;10.38;5.93;;;;;;;30.47;38.83;101443.19;5053045;28;20123;-82
2023/05/06 09:29:01;;;;;;;8.95;6.07;;;;;;;31.25;38.40;101449.00;5071570;28;20115;-81
2023/05/06 09:31:28;;;;;;;7.70;5.65;;;;;;;31.44;35.25;101445.72;5053250;28;20751;-81
2023/05/06 09:33:54;;;;;;;8.23;5.45;;;;;;;31.77;37.71;101453.22;5071777;28;20033;-82
2023/05/06 09:36:21;;;;;;;8.73;5.80;;;;;;;32.22;36.31;101445.66;5071349;28;20035;-82
2023/05/06 09:38:46;;;;;;;7.63;5.00;;;;;;;32.46;33.67;101460.69;5071278;28;20033;-83
2023/05/06 09:44:33;;;;;;;7.65;5.05;;;;;;;31.66;34.67;101439.81;5071868;28;20051;-82
2023/05/06 09:46:58;;;;;;;6.80;4.10;;;;;;;32.61;32.89;101446.91;5053709;28;20564;-81
2023/05/06 09:49:25;;;;;;;7.28;4.45;;;;;;;32.80;31.99;101448.31;5052775;28;20366;-81
2023/05/06 09:51:51;;;;;;;9.07;5.40;;;;;;;31.52;34.14;101439.31;5074342;28;20400;-82
2023/05/06 09:54:17;;;;;;;8.02;5.28;;;;;;;29.39;36.62;101439.00;5057231;28;20043;-82
2023/05/06 09:56:45;;;;;;;8.45;4.50;;;;;;;28.22;41.51;101432.34;5056568;28;20040;-82
2023/05/06 09:59:11;;;;;;;8.77;5.13;;;;;;;28.60;39.84;101423.56;5075056;28;20032;-81
2023/05/06 10:01:37;;;;;;;6.15;4.53;;;;;;;29.15;39.50;101429.28;5074008;28;20059;-82
2023/05/06 10:04:06;;;;;;;7.72;4.50;;;;;;;29.95;40.38;101431.56;5074875;28;20495;-83
2023/05/06 10:06:35;;;;;;;8.02;4.70;;;;;;;30.53;36.19;101428.06;5074320;28;20028;-82
2023/05/06 10:09:01;;;;;;;7.05;4.60;;;;;;;30.25;35.38;101430.50;5074406;28;20456;-83
2023/05/06 10:14:47;;;;;;;7.03;4.30;;;;;;;28.94;42.08;101420.09;5075236;28;20100;-82
2023/05/06 10:17:13;;;;;;;8.13;4.37;;;;;;;28.96;39.90;101417.81;5074732;28;20060;-82
2023/05/06 10:19:42;;;;;;;6.55;3.92;;;;;;;30.16;36.61;101419.50;5072631;28;20318;-83
2023/05/06 10:22:29;;;;;;;5.68;3.28;;;;;;;30.92;38.88;101413.00;5074353;28;20021;-82
2023/05/06 10:25:23;;;;;;;5.78;3.28;;;;;;;30.48;36.73;101409.75;5073605;28;20571;-83
2023/05/06 10:27:48;;;;;;;6.20;3.03;;;;;;;28.94;38.36;101409.88;5074612;28;20024;-84
2023/05/06 10:30:17;;;;;;;5.53;3.35;;;;;;;28.74;38.92;101415.97;5074657;28;20365;-84
2023/05/06 10:32:44;;;;;;;5.20;2.88;;;;;;;28.36;39.16;101408.31;5073723;28;20382;-83
2023/05/06 10:35:25;;;;;;;4.45;2.42;;;;;;;27.61;39.77;101408.44;5056629;28;20025;-84
2023/05/06 10:37:51;;;;;;;7.63;2.78;;;;;;;27.01;41.06;101397.84;5072554;28;20557;-84
2023/05/06 10:40:17;;;;;;;5.20;2.50;;;;;;;26.33;42.59;101396.84;5074302;28;20028;-83
2023/05/06 10:42:42;;;;;;;4.75;2.10;;;;;;;26.12;43.53;101390.97;5074307;28;20083;-83
2023/05/06 10:45:09;;;;;;;3.22;2.20;;;;;;;25.87;42.48;101395.00;5055596;28;20044;-82
2023/05/06 10:47:56;;;;;;;3.85;2.33;;;;;;;25.86;44.29;101389.84;5073979;28;20025;-83
2023/05/06 10:50:26;;;;;;;3.75;2.47;;;;;;;26.16;42.73;101389.22;5055664;28;20032;-83
2023/05/06 10:52:57;;;;;;;3.85;2.10;;;;;;;26.49;44.22;101391.88;5056138;28;20036;-82
2023/05/06 10:55:32;;;;;;;4.45;2.28;;;;;;;25.84;46.82;101387.41;5073238;28;20485;-83
2023/05/06 10:58:11;;;;;;;3.53;2.30;;;;;;;25.06;45.11;101377.22;5056245;28;20513;-82
2023/05/06 11:00:37;;;;;;;3.90;1.80;;;;;;;25.29;45.02;101383.69;5074015;28;20032;-82
2023/05/06 11:06:51;;;;;;;5.20;1.77;;;;;;;25.85;45.21;101385.47;5074430;28;20075;-82
2023/05/06 11:09:26;;;;;;;2.97;2.10;;;;;;;24.97;46.21;101376.25;5070365;28;20064;-81
2023/05/06 11:12:00;;;;;;;3.83;1.90;;;;;;;23.73;46.33;101372.66;5055831;28;20461;-82
2023/05/06 11:14:30;;;;;;;3.45;1.83;;;;;;;22.91;48.43;101382.59;5047026;28;20397;-80
2023/05/06 11:16:57;;;;;;;3.25;1.65;;;;;;;23.12;50.79;101383.25;5055796;28;20032;-80
2023/05/06 11:22:44;;;;;;;6.53;2.00;;;;;;;25.41;47.44;101364.03;5073708;28;20077;-81
2023/05/06 11:25:10;;;;;;;5.15;2.10;;;;;;;25.97;44.43;101366.59;5073555;28;20028;-80
2023/05/06 11:27:36;;;;;;;3.63;1.98;;;;;;;26.74;46.40;101369.34;5072637;28;20418;-80
2023/05/06 11:30:02;;;;;;;2.58;1.83;;;;;;;26.66;41.95;101375.56;5055374;28;20032;-80
2023/05/06 11:32:28;;;;;;;3.80;1.90;;;;;;;27.03;42.82;101359.91;5072453;28;20064;-80
2023/05/06 11:34:55;;;;;;;2.65;1.80;;;;;;;27.59;41.39;101372.22;5073486;28;20114;-80
2023/05/06 11:40:42;;;;;;;3.75;2.10;;;;;;;26.93;42.66;101371.94;5073577;28;20119;-80
2023/05/06 11:43:12;;;;;;;3.80;2.05;;;;;;;26.79;43.24;101366.47;5073172;28;20127;-79
2023/05/06 11:45:48;;;;;;;4.07;2.22;;;;;;;26.25;44.47;101365.44;5043807;28;20032;-79
2023/05/06 11:48:15;;;;;;;3.90;1.77;;;;;;;25.72;44.73;101364.34;5072874;28;20419;-79
2023/05/06 11:50:48;;;;;;;3.38;1.80;;;;;;;25.64;43.54;101363.91;5072213;28;20040;-79
2023/05/06 11:53:17;;;;;;;4.03;1.83;;;;;;;25.68;47.71;101361.38;5055056;28;20024;-79
2023/05/06 11:55:44;;;;;;;3.90;1.88;;;;;;;25.79;45.72;101365.56;5054213;28;20131;-79
2023/05/06 11:58:18;;;;;;;2.72;2.00;;;;;;;25.09;45.90;101365.69;5073127;28;20043;-79
2023/05/06 12:00:54;;;;;;;5.00;2.35;;;;;;;25.32;46.64;101350.25;5072906;28;20083;-79
2023/05/06 12:03:20;;;;;;;4.32;2.10;;;;;;;26.20;43.99;101354.59;5072174;28;20119;-78
2023/05/06 12:05:47;;;;;;;3.95;2.47;;;;;;;26.31;45.04;101360.69;5072987;28;20104;-78
2023/05/06 12:08:14;;;;;;;4.20;2.30;;;;;;;26.45;45.22;101364.25;5071157;28;20049;-78
2023/05/06 12:10:40;;;;;;;6.43;2.25;;;;;;;26.14;44.17;101355.81;5072877;28;20024;-78
2023/05/06 12:13:05;;;;;;;6.28;2.15;;;;;;;26.02;46.03;101363.75;5072044;28;20397;-78
2023/05/06 12:15:33;;;;;;;4.82;2.05;;;;;;;25.26;46.13;101363.22;5071931;28;20044;-78
2023/05/06 12:17:59;;;;;;;6.15;2.05;;;;;;;24.70;46.25;101353.13;5072560;28;20100;-78
2023/05/06 12:20:24;;;;;;;4.07;2.45;;;;;;;24.58;50.55;101357.44;5071884;28;20033;-79
2023/05/06 12:23:10;;;;;;;4.60;2.08;;;;;;;24.69;49.90;101359.72;5072653;28;20037;-77
2023/05/06 12:25:36;;;;;;;6.50;1.85;;;;;;;24.51;50.46;101349.56;5072706;28;20473;-76
2023/05/06 12:28:18;;;;;;;4.30;1.80;;;;;;;24.56;49.15;101359.63;5071615;28;20112;-77
2023/05/06 12:30:45;;;;;;;3.50;2.05;;;;;;;24.70;52.37;101344.91;5054678;28;20028;-77
2023/05/06 12:33:10;;;;;;;3.80;2.00;;;;;;;25.69;50.67;101353.97;5071580;28;20040;-77
2023/05/06 12:35:36;;;;;;;4.15;2.25;;;;;;;26.83;44.25;101350.19;5072489;28;20087;-77
2023/05/06 12:38:12;;;;;;;3.30;2.10;;;;;;;27.74;44.22;101347.06;5071913;28;20086;-76
2023/05/06 12:40:39;;;;;;;6.03;2.10;;;;;;;27.19;40.58;101352.94;5072087;28;20094;-77
2023/05/06 12:43:04;;;;;;;2.38;1.55;;;;;;;26.88;42.65;101354.75;5072328;28;20032;-77
2023/05/06 12:45:30;;;;;;;5.28;2.00;;;;;;;26.68;43.79;101356.88;5071549;28;20485;-76